createdAt,value
2022-11-30T00:01:48.729Z,98877.00
2022-11-30T00:04:17.912Z,98885.00
2022-11-30T00:06:47.052Z,98887.00
2022-11-30T00:09:16.256Z,98877.00
2022-11-30T00:11:48.655Z,98875.00
2022-11-30T00:14:17.842Z,98879.00
2022-11-30T00:16:49.946Z,98880.00
2022-11-30T00:19:19.229Z,98879.00
2022-11-30T00:21:48.564Z,98880.00
2022-11-30T00:24:17.707Z,98878.00
2022-11-30T00:26:46.849Z,98889.00
2022-11-30T00:29:18.780Z,98890.00
2022-11-30T00:31:50.697Z,98895.00
2022-11-30T00:34:19.864Z,98897.00
2022-11-30T00:36:49.027Z,98896.00
2022-11-30T00:39:18.239Z,98900.00
2022-11-30T00:41:47.444Z,98903.00
2022-11-30T00:44:16.676Z,98907.00
2022-11-30T00:46:50.336Z,98910.00
2022-11-30T00:49:19.573Z,98920.00
2022-11-30T00:51:48.773Z,98918.00
2022-11-30T00:54:26.455Z,98920.00
2022-11-30T00:56:55.682Z,98929.00
2022-11-30T00:59:24.907Z,98931.00
2022-11-30T01:02:02.132Z,98937.00
2022-11-30T01:04:31.409Z,98940.00
2022-11-30T01:07:01.356Z,98942.00
2022-11-30T01:09:32.630Z,98944.00
2022-11-30T01:12:07.709Z,98951.00
2022-11-30T01:14:39.533Z,98949.00
2022-11-30T01:17:13.698Z,98950.00
2022-11-30T01:19:47.036Z,98957.00
2022-11-30T01:22:18.100Z,98955.00
2022-11-30T01:24:47.520Z,98960.00
2022-11-30T01:27:16.905Z,98966.00
2022-11-30T01:29:47.784Z,98972.00
2022-11-30T01:32:19.113Z,98979.00
2022-11-30T01:34:51.065Z,98977.00
2022-11-30T01:37:41.455Z,98975.00
2022-11-30T01:40:13.207Z,98980.00
2022-11-30T01:42:50.267Z,98976.00
2022-11-30T01:45:22.030Z,98978.00
2022-11-30T01:48:01.868Z,98976.00
2022-11-30T01:50:36.912Z,98975.00
2022-11-30T01:53:11.842Z,98977.00
2022-11-30T01:55:50.220Z,98979.00
2022-11-30T01:58:26.743Z,98985.00
2022-11-30T02:00:56.317Z,98987.00
2022-11-30T02:03:37.134Z,98995.00
2022-11-30T02:06:06.660Z,98993.00
2022-11-30T02:08:36.189Z,99001.00
2022-11-30T02:11:09.397Z,98996.00
2022-11-30T02:14:11.962Z,99000.00
2022-11-30T02:17:20.599Z,98997.00
2022-11-30T02:20:16.720Z,98988.00
2022-11-30T02:23:41.799Z,98987.00
2022-11-30T02:26:55.917Z,98997.00
2022-11-30T02:29:42.409Z,98996.00
2022-11-30T02:33:01.511Z,98997.00
2022-11-30T02:35:36.089Z,98999.00
2022-11-30T02:38:07.245Z,98999.00
2022-11-30T02:40:36.528Z,99005.00
2022-11-30T02:43:08.238Z,98992.00
2022-11-30T02:46:05.604Z,98985.00
2022-11-30T02:49:07.181Z,98986.00
2022-11-30T02:51:41.209Z,98988.00
2022-11-30T02:54:11.257Z,98988.00
2022-11-30T02:56:40.432Z,98979.00
2022-11-30T02:59:09.664Z,98984.00
2022-11-30T03:01:40.449Z,98981.00
2022-11-30T03:04:09.761Z,98972.00
2022-11-30T03:06:39.021Z,98979.00
2022-11-30T03:09:08.317Z,98974.00
2022-11-30T03:11:38.036Z,98968.00
2022-11-30T03:14:07.459Z,98972.00
2022-11-30T03:16:37.868Z,98967.00
2022-11-30T03:19:07.201Z,98969.00
2022-11-30T03:21:36.501Z,98968.00
2022-11-30T03:24:06.087Z,98968.00
2022-11-30T03:26:35.236Z,98971.00
2022-11-30T03:29:04.593Z,98972.00
2022-11-30T03:31:34.048Z,98967.00
2022-11-30T03:34:03.834Z,98974.00
2022-11-30T03:36:32.973Z,98968.00
2022-11-30T03:39:02.441Z,98965.00
2022-11-30T03:41:31.737Z,98960.00
2022-11-30T03:44:01.056Z,98956.00
2022-11-30T03:46:30.596Z,98958.00
2022-11-30T03:48:59.851Z,98948.00
2022-11-30T03:51:29.030Z,98957.00
2022-11-30T03:53:58.321Z,98955.00
2022-11-30T03:56:27.754Z,98945.00
2022-11-30T03:58:57.195Z,98941.00
2022-11-30T04:01:26.894Z,98932.00
2022-11-30T04:03:56.151Z,98928.00
2022-11-30T04:06:25.348Z,98928.00
2022-11-30T04:08:54.609Z,98922.00
2022-11-30T04:11:24.480Z,98921.00
2022-11-30T04:13:53.607Z,98922.00
2022-11-30T04:16:22.931Z,98913.00
2022-11-30T04:18:52.153Z,98906.00
2022-11-30T04:21:21.399Z,98903.00
2022-11-30T04:23:50.619Z,98900.00
2022-11-30T04:26:20.031Z,98899.00
2022-11-30T04:28:49.597Z,98890.00
2022-11-30T04:31:18.939Z,98882.00
2022-11-30T04:33:48.105Z,98884.00
2022-11-30T04:36:22.551Z,98876.00
2022-11-30T04:38:51.883Z,98877.00
2022-11-30T04:41:21.059Z,98874.00
2022-11-30T04:43:50.256Z,98869.00
2022-11-30T04:46:19.527Z,98864.00
2022-11-30T04:48:48.755Z,98863.00
2022-11-30T04:51:17.902Z,98858.00
2022-11-30T04:53:47.037Z,98850.00
2022-11-30T04:56:16.260Z,98847.00
2022-11-30T04:58:45.450Z,98841.00
2022-11-30T05:01:14.617Z,98840.00
2022-11-30T05:03:43.819Z,98823.00
2022-11-30T05:06:13.102Z,98833.00
2022-11-30T05:08:42.228Z,98826.00
2022-11-30T05:11:11.481Z,98829.00
2022-11-30T05:13:40.842Z,98816.00
2022-11-30T05:16:11.674Z,98815.00
2022-11-30T05:18:40.892Z,98807.00
2022-11-30T05:21:10.080Z,98799.00
2022-11-30T05:23:39.240Z,98787.00
2022-11-30T05:26:08.464Z,98785.00
2022-11-30T05:28:38.351Z,98783.00
2022-11-30T05:31:08.293Z,98770.00
2022-11-30T05:33:37.506Z,98758.00
2022-11-30T05:36:10.736Z,98760.00
2022-11-30T05:38:40.294Z,98759.00
2022-11-30T05:41:09.667Z,98750.00
2022-11-30T05:43:38.924Z,98749.00
2022-11-30T05:46:11.096Z,98743.00
2022-11-30T05:48:40.761Z,98741.00
2022-11-30T05:51:16.842Z,98749.00
2022-11-30T05:53:49.747Z,98737.00
2022-11-30T05:56:21.969Z,98742.00
2022-11-30T05:58:51.197Z,98729.00
2022-11-30T06:01:27.824Z,98728.00
2022-11-30T06:03:57.591Z,98718.00
2022-11-30T06:06:26.861Z,98715.00
2022-11-30T06:08:56.564Z,98715.00
2022-11-30T06:11:25.907Z,98707.00
2022-11-30T06:13:55.092Z,98700.00
2022-11-30T06:16:24.382Z,98703.00
2022-11-30T06:18:53.673Z,98699.00
2022-11-30T06:21:24.832Z,98696.00
2022-11-30T06:23:54.617Z,98691.00
2022-11-30T06:26:24.084Z,98680.00
2022-11-30T06:28:56.045Z,98685.00
2022-11-30T06:31:26.269Z,98681.00
2022-11-30T06:33:59.830Z,98677.00
2022-11-30T06:36:35.491Z,98674.00
2022-11-30T06:39:06.637Z,98659.00
2022-11-30T06:41:37.139Z,98662.00
2022-11-30T06:44:14.818Z,98661.00
2022-11-30T06:46:44.097Z,98654.00
2022-11-30T06:49:13.231Z,98649.00
2022-11-30T06:51:43.331Z,98650.00
2022-11-30T06:54:12.721Z,98645.00
2022-11-30T06:56:41.855Z,98641.00
2022-11-30T06:59:11.301Z,98637.00
2022-11-30T07:01:40.470Z,98641.00
2022-11-30T07:04:10.222Z,98639.00
2022-11-30T07:06:39.440Z,98633.00
2022-11-30T07:09:08.647Z,98630.00
2022-11-30T07:11:38.665Z,98624.00
2022-11-30T07:14:07.873Z,98621.00
2022-11-30T07:16:37.203Z,98616.00
2022-11-30T07:19:06.408Z,98613.00
2022-11-30T07:21:35.521Z,98623.00
2022-11-30T07:24:22.764Z,98616.00
2022-11-30T07:26:52.045Z,98602.00
2022-11-30T07:29:21.282Z,98592.00
2022-11-30T07:31:54.804Z,98593.00
2022-11-30T07:34:24.460Z,98592.00
2022-11-30T07:36:53.734Z,98583.00
2022-11-30T07:39:22.989Z,98592.00
2022-11-30T07:41:52.281Z,98592.00
2022-11-30T07:44:21.443Z,98586.00
2022-11-30T07:46:50.689Z,98592.00
2022-11-30T07:49:20.169Z,98591.00
2022-11-30T07:51:49.361Z,98592.00
2022-11-30T07:54:18.679Z,98601.00
2022-11-30T07:56:47.919Z,98594.00
2022-11-30T07:59:17.294Z,98580.00
2022-11-30T08:01:46.570Z,98583.00
2022-11-30T08:04:16.082Z,98579.00
2022-11-30T08:06:45.465Z,98572.00
2022-11-30T08:09:20.312Z,98572.00
2022-11-30T08:11:51.230Z,98564.00
2022-11-30T08:14:20.438Z,98561.00
2022-11-30T08:16:50.097Z,98559.00
2022-11-30T08:19:19.403Z,98561.00
2022-11-30T08:21:48.915Z,98557.00
2022-11-30T08:24:18.309Z,98558.00
2022-11-30T08:26:47.635Z,98559.00
2022-11-30T08:29:16.854Z,98558.00
2022-11-30T08:31:46.134Z,98562.00
2022-11-30T08:34:16.033Z,98558.00
2022-11-30T08:36:50.374Z,98560.00
2022-11-30T08:39:21.299Z,98561.00
2022-11-30T08:41:50.935Z,98557.00
2022-11-30T08:44:20.149Z,98559.00
2022-11-30T08:46:51.863Z,98567.00
2022-11-30T08:49:23.744Z,98551.00
2022-11-30T08:54:47.952Z,98555.00
2022-11-30T08:57:22.849Z,98550.00
2022-11-30T08:59:52.031Z,98553.00
2022-11-30T09:02:21.832Z,98547.00
2022-11-30T09:04:52.783Z,98544.00
2022-11-30T09:07:22.074Z,98547.00
2022-11-30T09:09:51.396Z,98548.00
2022-11-30T09:12:21.907Z,98550.00
2022-11-30T09:14:57.421Z,98556.00
2022-11-30T09:17:27.969Z,98548.00
2022-11-30T09:19:57.317Z,98553.00
2022-11-30T09:22:26.952Z,98556.00
2022-11-30T09:24:56.907Z,98556.00
2022-11-30T09:27:31.249Z,98566.00
2022-11-30T09:30:00.836Z,98563.00
2022-11-30T09:32:31.054Z,98566.00
2022-11-30T09:35:00.324Z,98576.00
2022-11-30T09:37:29.614Z,98576.00
2022-11-30T09:39:58.910Z,98573.00
2022-11-30T09:43:23.997Z,98578.00
2022-11-30T09:46:03.448Z,98584.00
2022-11-30T09:49:00.923Z,98586.00
2022-11-30T09:51:48.254Z,98591.00
2022-11-30T09:54:24.436Z,98584.00
2022-11-30T09:56:54.325Z,98589.00
2022-11-30T09:59:33.823Z,98588.00
2022-11-30T10:02:16.890Z,98593.00
2022-11-30T10:04:50.066Z,98599.00
2022-11-30T10:07:46.218Z,98605.00
2022-11-30T10:10:44.370Z,98605.00
2022-11-30T10:13:47.076Z,98616.00
2022-11-30T10:16:53.802Z,98614.00
2022-11-30T10:19:34.121Z,98624.00
2022-11-30T10:22:27.143Z,98634.00
2022-11-30T10:25:26.184Z,98632.00
2022-11-30T10:28:12.733Z,98638.00
2022-11-30T10:30:51.571Z,98636.00
2022-11-30T10:33:37.020Z,98640.00
2022-11-30T10:36:23.525Z,98643.00
2022-11-30T10:39:01.230Z,98649.00
2022-11-30T10:41:52.508Z,98655.00
2022-11-30T10:44:40.652Z,98664.00
2022-11-30T10:47:28.237Z,98662.00
2022-11-30T10:49:57.767Z,98671.00
2022-11-30T10:52:42.283Z,98671.00
2022-11-30T10:55:31.855Z,98670.00
2022-11-30T10:58:28.146Z,98667.00
2022-11-30T11:01:11.411Z,98671.00
2022-11-30T11:03:40.690Z,98682.00
2022-11-30T11:06:21.806Z,98689.00
2022-11-30T11:08:51.627Z,98684.00
2022-11-30T11:12:06.178Z,98696.00
2022-11-30T11:14:38.195Z,98705.00
2022-11-30T11:17:25.197Z,98709.00
2022-11-30T11:19:57.781Z,98712.00
2022-11-30T11:22:32.423Z,98707.00
2022-11-30T11:25:29.557Z,98710.00
2022-11-30T11:28:24.011Z,98705.00
2022-11-30T11:30:58.620Z,98698.00
2022-11-30T11:33:31.683Z,98710.00
2022-11-30T11:36:10.063Z,98709.00
2022-11-30T11:38:49.492Z,98718.00
2022-11-30T11:41:32.592Z,98715.00
2022-11-30T11:44:10.805Z,98720.00
2022-11-30T11:46:57.666Z,98708.00
2022-11-30T11:49:32.914Z,98716.00
2022-11-30T11:52:15.001Z,98720.00
2022-11-30T11:54:57.948Z,98723.00
2022-11-30T11:58:03.822Z,98737.00
2022-11-30T12:00:34.256Z,98741.00
2022-11-30T12:03:40.108Z,98737.00
2022-11-30T12:06:20.237Z,98745.00
2022-11-30T12:08:57.982Z,98743.00
2022-11-30T12:11:48.624Z,98754.00
2022-11-30T12:14:21.240Z,98763.00
2022-11-30T12:17:19.817Z,98763.00
2022-11-30T12:20:41.150Z,98765.00
2022-11-30T12:23:35.281Z,98767.00
2022-11-30T12:26:10.286Z,98767.00
2022-11-30T12:29:19.717Z,98776.00
2022-11-30T12:32:03.347Z,98770.00
2022-11-30T12:35:12.427Z,98776.00
2022-11-30T12:38:16.387Z,98784.00
2022-11-30T12:41:11.923Z,98799.00
2022-11-30T12:44:22.256Z,98806.00
2022-11-30T12:47:10.078Z,98810.00
2022-11-30T12:50:13.556Z,98820.00
2022-11-30T12:53:33.096Z,98825.00
2022-11-30T12:56:46.342Z,98827.00
2022-11-30T13:00:14.170Z,98822.00
2022-11-30T13:03:09.657Z,98822.00
2022-11-30T13:05:52.639Z,98824.00
2022-11-30T13:08:32.331Z,98828.00
2022-11-30T13:11:12.704Z,98829.00
2022-11-30T13:13:58.602Z,98830.00
2022-11-30T13:16:32.321Z,98836.00
2022-11-30T13:19:21.951Z,98835.00
2022-11-30T13:22:06.189Z,98836.00
2022-11-30T13:24:48.959Z,98855.00
2022-11-30T13:27:44.319Z,98853.00
2022-11-30T13:30:42.820Z,98850.00
2022-11-30T13:33:36.851Z,98857.00
2022-11-30T13:36:39.843Z,98866.00
2022-11-30T13:39:26.824Z,98881.00
2022-11-30T13:42:08.267Z,98876.00
2022-11-30T13:44:46.198Z,98878.00
2022-11-30T13:47:29.129Z,98874.00
2022-11-30T13:50:33.615Z,98868.00
2022-11-30T13:53:05.533Z,98873.00
2022-11-30T13:55:44.019Z,98870.00
2022-11-30T13:58:16.723Z,98866.00
2022-11-30T14:01:42.968Z,98859.00
2022-11-30T14:04:33.896Z,98865.00
2022-11-30T14:07:03.521Z,98861.00
2022-11-30T14:09:46.677Z,98864.00
2022-11-30T14:12:38.227Z,98861.00
2022-11-30T14:15:42.794Z,98855.00
2022-11-30T14:18:12.276Z,98850.00
2022-11-30T14:20:55.401Z,98849.00
2022-11-30T14:23:56.496Z,98847.00
2022-11-30T14:26:49.729Z,98847.00
2022-11-30T14:29:24.989Z,98843.00
2022-11-30T14:32:11.933Z,98837.00
2022-11-30T14:34:53.697Z,98849.00
2022-11-30T14:37:45.967Z,98854.00
2022-11-30T14:40:22.810Z,98854.00
2022-11-30T14:42:59.223Z,98852.00
2022-11-30T14:45:35.208Z,98857.00
2022-11-30T14:48:19.354Z,98858.00
2022-11-30T14:50:56.539Z,98861.00
2022-11-30T14:53:56.543Z,98861.00
2022-11-30T14:56:49.715Z,98865.00
2022-11-30T14:59:53.951Z,98867.00
2022-11-30T15:02:29.704Z,98864.00
2022-11-30T15:05:01.286Z,98852.00
2022-11-30T15:07:31.362Z,98864.00
2022-11-30T15:10:30.680Z,98856.00
2022-11-30T15:13:03.934Z,98857.00
2022-11-30T15:15:36.178Z,98854.00
2022-11-30T15:18:17.630Z,98851.00
2022-11-30T15:21:07.940Z,98851.00
2022-11-30T15:23:37.403Z,98844.00
2022-11-30T15:26:35.436Z,98850.00
2022-11-30T15:29:22.976Z,98854.00
2022-11-30T15:31:57.877Z,98837.00
2022-11-30T15:34:29.871Z,98846.00
2022-11-30T15:37:04.831Z,98845.00
2022-11-30T15:39:37.139Z,98846.00
2022-11-30T15:42:08.691Z,98850.00
2022-11-30T15:44:48.633Z,98853.00
2022-11-30T15:47:39.757Z,98858.00
2022-11-30T15:50:30.196Z,98854.00
2022-11-30T15:53:05.858Z,98857.00
2022-11-30T15:55:50.944Z,98867.00
2022-11-30T15:58:48.573Z,98878.00
2022-11-30T16:01:26.055Z,98871.00
2022-11-30T16:04:00.368Z,98872.00
2022-11-30T16:06:46.913Z,98875.00
2022-11-30T16:10:09.005Z,98877.00
2022-11-30T16:12:39.008Z,98875.00
2022-11-30T16:15:31.202Z,98869.00
2022-11-30T16:18:20.117Z,98876.00
2022-11-30T16:20:58.205Z,98881.00
2022-11-30T16:23:31.632Z,98877.00
2022-11-30T16:26:01.431Z,98876.00
2022-11-30T16:28:30.660Z,98880.00
2022-11-30T16:31:02.943Z,98876.00
2022-11-30T16:33:32.133Z,98884.00
2022-11-30T16:36:10.786Z,98892.00
2022-11-30T16:38:39.966Z,98880.00
2022-11-30T16:41:23.783Z,98882.00
2022-11-30T16:43:56.771Z,98877.00
2022-11-30T16:46:47.357Z,98880.00
2022-11-30T16:49:16.419Z,98883.00
2022-11-30T16:51:45.627Z,98883.00
2022-11-30T16:54:18.093Z,98875.00
2022-11-30T16:56:47.885Z,98873.00
2022-11-30T16:59:17.339Z,98869.00
2022-11-30T17:01:56.575Z,98868.00
2022-11-30T17:04:30.551Z,98864.00
2022-11-30T17:07:08.562Z,98865.00
2022-11-30T17:09:37.787Z,98862.00
2022-11-30T17:12:10.156Z,98867.00
2022-11-30T17:14:41.798Z,98863.00
2022-11-30T17:17:11.442Z,98864.00
2022-11-30T17:19:40.564Z,98860.00
2022-11-30T17:22:09.738Z,98864.00
2022-11-30T17:24:38.834Z,98866.00
2022-11-30T17:27:08.147Z,98861.00
2022-11-30T17:29:37.392Z,98867.00
2022-11-30T17:32:09.506Z,98862.00
2022-11-30T17:34:38.769Z,98861.00
2022-11-30T17:37:07.950Z,98859.00
2022-11-30T17:39:37.441Z,98861.00
2022-11-30T17:42:06.895Z,98861.00
2022-11-30T17:44:36.008Z,98858.00
2022-11-30T17:47:05.142Z,98860.00
2022-11-30T17:49:34.185Z,98859.00
2022-11-30T17:52:03.308Z,98859.00
2022-11-30T17:54:32.349Z,98862.00
2022-11-30T17:57:01.547Z,98863.00
2022-11-30T17:59:30.804Z,98860.00
2022-11-30T18:02:00.109Z,98867.00
2022-11-30T18:04:29.215Z,98852.00
2022-11-30T18:06:58.402Z,98854.00
2022-11-30T18:09:27.816Z,98859.00
2022-11-30T18:11:57.793Z,98862.00
2022-11-30T18:14:27.044Z,98859.00
2022-11-30T18:16:56.254Z,98861.00
2022-11-30T18:19:25.533Z,98862.00
2022-11-30T18:21:56.223Z,98865.00
2022-11-30T18:24:25.889Z,98864.00
2022-11-30T18:26:55.362Z,98852.00
2022-11-30T18:29:24.566Z,98855.00
2022-11-30T18:31:53.724Z,98850.00
2022-11-30T18:34:24.095Z,98848.00
2022-11-30T18:36:53.303Z,98858.00
2022-11-30T18:39:22.569Z,98858.00
2022-11-30T18:41:51.735Z,98868.00
2022-11-30T18:44:20.992Z,98869.00
2022-11-30T18:46:50.204Z,98865.00
2022-11-30T18:49:22.020Z,98874.00
2022-11-30T18:51:51.210Z,98872.00
2022-11-30T18:54:20.346Z,98867.00
2022-11-30T18:56:49.516Z,98865.00
2022-11-30T18:59:19.065Z,98861.00
2022-11-30T19:01:48.355Z,98853.00
2022-11-30T19:04:17.952Z,98855.00
2022-11-30T19:06:47.163Z,98863.00
2022-11-30T19:09:17.652Z,98859.00
2022-11-30T19:11:47.572Z,98862.00
2022-11-30T19:14:18.889Z,98870.00
2022-11-30T19:16:48.184Z,98867.00
2022-11-30T19:19:17.429Z,98868.00
2022-11-30T19:21:51.731Z,98859.00
2022-11-30T19:24:20.955Z,98846.00
2022-11-30T19:26:50.187Z,98845.00
2022-11-30T19:29:19.451Z,98845.00
2022-11-30T19:31:48.601Z,98840.00
2022-11-30T19:34:17.750Z,98831.00
2022-11-30T19:36:46.989Z,98840.00
2022-11-30T19:39:16.326Z,98836.00
2022-11-30T19:41:45.496Z,98829.00
2022-11-30T19:44:16.587Z,98832.00
2022-11-30T19:46:45.854Z,98826.00
2022-11-30T19:49:15.064Z,98825.00
2022-11-30T19:51:44.376Z,98821.00
2022-11-30T19:54:13.579Z,98813.00
2022-11-30T19:56:44.115Z,98802.00
2022-11-30T19:59:13.465Z,98808.00
2022-11-30T20:01:42.994Z,98809.00
2022-11-30T20:04:12.395Z,98811.00
2022-11-30T20:06:41.557Z,98815.00
2022-11-30T20:09:12.972Z,98821.00
2022-11-30T20:11:42.636Z,98810.00
2022-11-30T20:14:17.993Z,98811.00
2022-11-30T20:16:47.105Z,98808.00
2022-11-30T20:19:18.273Z,98813.00
2022-11-30T20:21:49.178Z,98819.00
2022-11-30T20:24:18.294Z,98825.00
2022-11-30T20:26:47.736Z,98825.00
2022-11-30T20:29:19.271Z,98823.00
2022-11-30T20:31:50.594Z,98826.00
2022-11-30T20:34:19.916Z,98812.00
2022-11-30T20:36:49.300Z,98811.00
2022-11-30T20:39:18.551Z,98811.00
2022-11-30T20:41:47.625Z,98804.00
2022-11-30T20:44:17.353Z,98807.00
2022-11-30T20:46:46.564Z,98817.00
2022-11-30T20:49:22.473Z,98811.00
2022-11-30T20:51:51.625Z,98801.00
2022-11-30T20:54:21.785Z,98802.00
2022-11-30T20:56:51.345Z,98799.00
2022-11-30T20:59:24.477Z,98797.00
2022-11-30T21:01:55.832Z,98796.00
2022-11-30T21:04:28.266Z,98802.00
2022-11-30T21:06:57.482Z,98797.00
2022-11-30T21:09:26.590Z,98809.00
2022-11-30T21:11:55.675Z,98809.00
2022-11-30T21:14:25.518Z,98802.00
2022-11-30T21:16:54.663Z,98805.00
2022-11-30T21:19:23.805Z,98809.00
2022-11-30T21:21:53.010Z,98808.00
2022-11-30T21:24:22.126Z,98811.00
2022-11-30T21:26:51.229Z,98808.00
2022-11-30T21:29:20.423Z,98806.00
2022-11-30T21:31:49.667Z,98811.00
2022-11-30T21:34:19.353Z,98816.00
2022-11-30T21:36:48.637Z,98823.00
2022-11-30T21:39:18.327Z,98823.00
2022-11-30T21:41:47.517Z,98831.00
2022-11-30T21:44:18.467Z,98830.00
2022-11-30T21:46:48.960Z,98833.00
2022-11-30T21:49:18.348Z,98832.00
2022-11-30T21:51:47.560Z,98832.00
2022-11-30T21:54:16.670Z,98833.00
2022-11-30T21:56:46.996Z,98836.00
2022-11-30T21:59:16.717Z,98839.00
2022-11-30T22:01:47.284Z,98846.00
2022-11-30T22:04:17.705Z,98838.00
2022-11-30T22:06:46.823Z,98836.00
2022-11-30T22:09:18.171Z,98836.00
2022-11-30T22:11:48.426Z,98838.00
2022-11-30T22:14:18.635Z,98838.00
2022-11-30T22:16:47.821Z,98839.00
2022-11-30T22:19:18.815Z,98843.00
2022-11-30T22:21:50.444Z,98830.00
2022-11-30T22:24:20.159Z,98833.00
2022-11-30T22:26:50.101Z,98826.00
2022-11-30T22:29:23.581Z,98827.00
2022-11-30T22:31:55.696Z,98836.00
2022-11-30T22:34:24.874Z,98835.00
2022-11-30T22:36:53.968Z,98835.00
2022-11-30T22:39:24.118Z,98836.00
2022-11-30T22:41:56.117Z,98840.00
2022-11-30T22:44:27.186Z,98846.00
2022-11-30T22:46:56.352Z,98844.00
2022-11-30T22:49:25.640Z,98844.00
2022-11-30T22:51:54.880Z,98842.00
2022-11-30T22:54:23.937Z,98841.00
2022-11-30T22:56:54.107Z,98839.00
2022-11-30T22:59:23.194Z,98850.00
2022-11-30T23:01:52.564Z,98848.00
2022-11-30T23:04:26.092Z,98857.00
2022-11-30T23:06:55.658Z,98865.00
2022-11-30T23:09:28.490Z,98865.00
2022-11-30T23:11:57.917Z,98878.00
2022-11-30T23:14:27.123Z,98887.00
2022-11-30T23:16:56.217Z,98889.00
2022-11-30T23:19:25.245Z,98906.00
2022-11-30T23:21:54.377Z,98904.00
2022-11-30T23:24:24.817Z,98908.00
2022-11-30T23:26:54.617Z,98916.00
2022-11-30T23:29:23.731Z,98915.00
2022-11-30T23:31:52.998Z,98927.00
2022-11-30T23:34:23.662Z,98925.00
2022-11-30T23:36:53.093Z,98934.00
2022-11-30T23:39:24.800Z,98940.00
2022-11-30T23:41:53.885Z,98952.00
2022-11-30T23:44:22.977Z,98949.00
2022-11-30T23:46:52.204Z,98960.00
2022-11-30T23:49:21.311Z,98968.00
2022-11-30T23:51:50.396Z,98968.00
2022-11-30T23:54:19.602Z,98971.00
2022-11-30T23:56:50.936Z,98975.00
2022-11-30T23:59:20.073Z,98986.00
